Time;durP1;ratioP1;P1;durP2;ratioP2;P2;SDS_P1;SDS_P2;PMS_P1;PMS_P2;Temp;Humidity;BMP_temperature;BMP_pressure;BME280_temperature;BME280_humidity;BME280_pressure;Samples;Min_cycle;Max_cycle;Signal;HPM_P1;HPM_P2
2023/04/29 00:01:20;;;;;;;24.63;16.20;;;;;;;11.51;100.00;100271.75;4955386;28;20462;-81
2023/04/29 00:03:47;;;;;;;25.73;15.63;;;;;;;11.45;100.00;100285.84;4955677;29;20039;-81
2023/04/29 00:06:13;;;;;;;26.88;17.60;;;;;;;11.44;100.00;100278.88;4955533;29;20039;-80
2023/04/29 00:08:40;;;;;;;30.05;15.98;;;;;;;11.40;100.00;100279.84;4955753;29;20046;-81
2023/04/29 00:11:06;;;;;;;25.98;17.83;;;;;;;11.37;100.00;100275.50;4956524;29;20046;-81
2023/04/29 00:13:33;;;;;;;30.38;19.55;;;;;;;11.36;100.00;100281.63;4955530;29;20039;-81
2023/04/29 00:15:59;;;;;;;36.60;21.80;;;;;;;11.34;100.00;100278.19;4956607;28;20035;-80
2023/04/29 00:18:26;;;;;;;35.38;21.45;;;;;;;11.34;100.00;100280.81;4955063;28;20478;-81
2023/04/29 00:20:52;;;;;;;37.78;23.95;;;;;;;11.31;100.00;100280.00;4955183;29;20073;-81
2023/04/29 00:23:19;;;;;;;42.55;23.27;;;;;;;11.30;100.00;100284.38;4957347;29;20058;-81
2023/04/29 00:25:45;;;;;;;37.88;21.65;;;;;;;11.29;100.00;100281.78;4939097;29;20470;-80
2023/04/29 00:28:12;;;;;;;47.67;25.13;;;;;;;11.24;100.00;100284.50;4955553;29;20067;-80
2023/04/29 00:30:38;;;;;;;43.00;24.15;;;;;;;11.21;100.00;100295.91;4939396;29;20054;-80
2023/04/29 00:33:05;;;;;;;43.80;25.60;;;;;;;11.20;100.00;100285.44;4954532;29;20090;-80
2023/04/29 00:35:32;;;;;;;40.17;22.75;;;;;;;11.19;100.00;100288.94;4955042;29;20043;-80
2023/04/29 00:37:58;;;;;;;41.55;24.23;;;;;;;11.16;100.00;100288.97;4955376;29;20154;-81
2023/04/29 00:40:25;;;;;;;36.45;21.70;;;;;;;11.14;100.00;100288.16;4954810;29;20506;-80
2023/04/29 00:42:52;;;;;;;43.65;25.20;;;;;;;11.16;100.00;100294.22;4953361;29;20055;-80
2023/04/29 00:45:18;;;;;;;36.45;22.08;;;;;;;11.12;100.00;100292.56;4954868;29;20047;-80
2023/04/29 00:47:44;;;;;;;45.03;23.08;;;;;;;11.11;100.00;100301.28;4955985;29;20193;-81
2023/04/29 00:50:12;;;;;;;39.15;22.15;;;;;;;11.09;100.00;100294.34;4938897;29;20058;-80
2023/04/29 00:52:39;;;;;;;37.50;23.13;;;;;;;11.10;100.00;100310.91;4954779;29;20074;-80
2023/04/29 00:55:08;;;;;;;39.38;22.17;;;;;;;11.08;100.00;100305.72;4954417;29;20047;-81
2023/04/29 00:57:34;;;;;;;39.05;22.83;;;;;;;11.08;100.00;100303.09;4954895;29;20113;-81
2023/04/29 01:00:02;;;;;;;33.83;20.58;;;;;;;11.07;100.00;100305.75;4957421;29;20039;-81
2023/04/29 01:02:30;;;;;;;40.28;22.33;;;;;;;11.07;100.00;100308.38;4940347;29;20138;-80
2023/04/29 01:05:02;;;;;;;38.10;22.60;;;;;;;11.03;100.00;100309.28;4939844;29;20039;-80
2023/04/29 01:07:51;;;;;;;42.17;23.77;;;;;;;11.02;100.00;100320.66;4954768;28;20043;-80
2023/04/29 01:10:54;;;;;;;41.33;22.40;;;;;;;10.91;100.00;100316.47;4940470;29;20039;-81
2023/04/29 01:13:42;;;;;;;38.55;21.77;;;;;;;10.81;100.00;100321.84;4971644;28;20069;-80
2023/04/29 01:16:21;;;;;;;42.70;23.13;;;;;;;10.72;100.00;100322.88;4957091;28;20046;-80
2023/04/29 01:19:00;;;;;;;39.03;24.05;;;;;;;10.67;100.00;100324.69;4941295;28;20043;-81
2023/04/29 01:21:32;;;;;;;39.33;22.83;;;;;;;10.65;100.00;100322.09;4940297;29;20546;-80
2023/04/29 01:23:58;;;;;;;38.50;22.50;;;;;;;10.62;100.00;100316.91;4956406;29;20125;-81
2023/04/29 01:26:30;;;;;;;40.55;20.83;;;;;;;10.59;100.00;100328.28;4957677;29;20047;-81
2023/04/29 01:29:39;;;;;;;35.85;20.83;;;;;;;10.55;100.00;100328.34;4955256;28;20043;-81
2023/04/29 01:32:11;;;;;;;34.92;20.60;;;;;;;10.51;100.00;100329.28;4954441;29;20458;-81
2023/04/29 01:35:01;;;;;;;36.88;22.08;;;;;;;10.47;100.00;100328.47;4939698;29;20047;-81
2023/04/29 01:37:42;;;;;;;39.42;20.33;;;;;;;10.45;100.00;100340.69;4940873;29;20045;-81
2023/04/29 01:40:46;;;;;;;40.97;22.27;;;;;;;10.42;100.00;100338.13;4957536;29;20136;-81
2023/04/29 01:43:16;;;;;;;43.50;24.35;;;;;;;10.38;100.00;100328.59;4957893;28;20047;-81
2023/04/29 01:45:47;;;;;;;42.33;24.25;;;;;;;10.38;100.00;100345.13;4971955;28;20043;-81
2023/04/29 01:48:15;;;;;;;44.15;23.80;;;;;;;10.38;100.00;100345.13;4956926;29;20071;-81
2023/04/29 01:51:01;;;;;;;45.88;25.70;;;;;;;10.35;100.00;100346.88;4955836;29;20106;-80
2023/04/29 01:53:29;;;;;;;39.03;23.85;;;;;;;10.33;100.00;100341.69;4954982;29;20046;-80
2023/04/29 01:55:55;;;;;;;47.20;25.88;;;;;;;10.32;100.00;100349.56;4954601;29;20035;-80
2023/04/29 01:58:22;;;;;;;43.45;23.05;;;;;;;10.29;100.00;100347.00;4938745;29;20047;-80
2023/04/29 02:00:48;;;;;;;41.58;22.85;;;;;;;10.32;100.00;100352.19;4954356;29;20043;-80
2023/04/29 02:03:15;;;;;;;39.50;22.75;;;;;;;10.24;100.00;100353.13;4954931;29;20439;-81
2023/04/29 02:05:42;;;;;;;35.92;21.25;;;;;;;10.23;100.00;100361.88;4954748;29;20087;-81
2023/04/29 02:08:09;;;;;;;42.22;23.60;;;;;;;10.22;100.00;100359.25;4938522;29;20098;-81
2023/04/29 02:10:36;;;;;;;42.65;23.27;;;;;;;10.21;100.00;100365.41;4954096;29;20035;-81
2023/04/29 02:13:03;;;;;;;40.83;21.60;;;;;;;10.20;100.00;100369.75;4954044;29;20562;-81
2023/04/29 02:15:30;;;;;;;37.00;23.13;;;;;;;10.17;100.00;100375.03;4953493;29;20047;-80
2023/04/29 02:17:56;;;;;;;39.88;21.75;;;;;;;10.17;100.00;100374.13;4954341;28;20043;-80
2023/04/29 02:20:23;;;;;;;37.72;22.23;;;;;;;10.14;100.00;100376.81;4936817;29;20049;-80
2023/04/29 02:22:50;;;;;;;36.78;21.65;;;;;;;10.14;100.00;100382.88;4952880;29;20101;-81
2023/04/29 02:25:16;;;;;;;35.25;21.05;;;;;;;10.13;100.00;100383.78;4953940;29;20035;-81
2023/04/29 02:27:43;;;;;;;32.90;20.13;;;;;;;10.14;100.00;100395.13;4938864;29;20039;-81
2023/04/29 02:30:10;;;;;;;36.90;22.13;;;;;;;10.11;100.00;100390.78;4954802;28;20110;-81
2023/04/29 02:32:38;;;;;;;34.90;20.52;;;;;;;10.12;100.00;100399.47;4954908;28;20054;-81
2023/04/29 02:35:05;;;;;;;35.63;22.02;;;;;;;10.09;100.00;100403.88;4954174;29;20126;-81
2023/04/29 02:37:32;;;;;;;42.10;23.83;;;;;;;10.08;100.00;100402.13;4953979;28;20055;-81
2023/04/29 02:39:58;;;;;;;46.90;25.35;;;;;;;10.05;100.00;100411.75;4956544;28;20422;-81
2023/04/29 02:42:25;;;;;;;44.03;26.73;;;;;;;10.00;100.00;100424.03;4957631;29;20040;-81
2023/04/29 02:44:51;;;;;;;40.55;24.50;;;;;;;9.94;100.00;100415.34;4957200;29;20042;-81
2023/04/29 02:47:18;;;;;;;41.80;24.25;;;;;;;9.90;100.00;100428.50;4941682;29;20107;-81
2023/04/29 02:49:44;;;;;;;39.38;23.75;;;;;;;9.86;100.00;100421.56;4957427;29;20054;-80
2023/04/29 02:52:11;;;;;;;40.20;23.95;;;;;;;9.81;100.00;100424.22;4956516;29;20042;-81
2023/04/29 02:54:40;;;;;;;41.28;23.02;;;;;;;9.78;100.00;100424.25;4956650;29;20085;-81
2023/04/29 02:57:07;;;;;;;37.20;22.75;;;;;;;9.74;100.00;100418.19;4956433;29;20047;-81
2023/04/29 02:59:34;;;;;;;39.85;23.00;;;;;;;9.74;100.00;100427.78;4956925;29;20055;-81
2023/04/29 03:02:01;;;;;;;38.80;23.55;;;;;;;9.70;100.00;100431.28;4957393;29;20039;-81
2023/04/29 03:04:28;;;;;;;41.75;23.50;;;;;;;9.70;100.00;100437.38;4956591;29;20047;-81
2023/04/29 03:06:56;;;;;;;43.75;23.23;;;;;;;9.70;100.00;100437.38;4941056;29;20051;-81
2023/04/29 03:09:23;;;;;;;34.72;21.60;;;;;;;9.69;100.00;100440.03;4956762;29;20043;-81
2023/04/29 03:11:49;;;;;;;36.42;21.77;;;;;;;9.66;100.00;100435.69;4956432;29;20036;-81
2023/04/29 03:14:16;;;;;;;33.75;19.95;;;;;;;9.64;100.00;100442.66;4941305;29;20043;-81
2023/04/29 03:16:43;;;;;;;32.83;21.02;;;;;;;9.63;100.00;100440.91;4957348;29;20066;-82
2023/04/29 03:19:09;;;;;;;31.65;20.23;;;;;;;9.62;100.00;100444.44;4957808;29;20118;-81
2023/04/29 03:21:36;;;;;;;31.15;20.80;;;;;;;9.61;100.00;100453.16;4956980;29;20130;-80
2023/04/29 03:24:02;;;;;;;30.33;19.55;;;;;;;9.60;100.00;100448.81;4957893;29;20039;-81
2023/04/29 03:26:29;;;;;;;27.30;19.80;;;;;;;9.59;100.00;100455.78;4961095;29;20041;-81
2023/04/29 03:28:57;;;;;;;31.98;21.27;;;;;;;9.61;100.00;100447.94;4969176;29;20050;-81
2023/04/29 03:31:24;;;;;;;26.85;20.50;;;;;;;9.60;100.00;100461.88;4955676;29;20051;-81
2023/04/29 03:33:52;;;;;;;31.60;21.25;;;;;;;9.60;100.00;100461.88;4971320;28;20043;-81
2023/04/29 03:36:19;;;;;;;28.58;20.30;;;;;;;9.56;100.00;100468.00;4966404;29;20039;-80
2023/04/29 03:38:45;;;;;;;26.88;20.50;;;;;;;9.52;100.00;100472.38;4961037;28;20127;-81
2023/04/29 03:41:12;;;;;;;27.05;20.20;;;;;;;9.48;100.00;100478.50;4958980;29;20047;-80
2023/04/29 03:43:38;;;;;;;31.75;21.60;;;;;;;9.43;100.00;100467.22;4943020;29;20035;-80
2023/04/29 03:46:05;;;;;;;27.60;20.27;;;;;;;9.40;100.00;100467.25;4945410;29;20058;-80
2023/04/29 03:48:31;;;;;;;29.02;22.08;;;;;;;9.39;100.00;100474.22;4974673;29;20062;-81
2023/04/29 03:51:01;;;;;;;28.08;21.58;;;;;;;9.39;100.00;100481.19;4962958;28;20392;-80
2023/04/29 03:53:31;;;;;;;33.08;23.40;;;;;;;9.36;100.00;100486.41;4942153;29;20043;-80
2023/04/29 03:56:01;;;;;;;36.80;23.85;;;;;;;9.31;100.00;100485.56;4956621;29;20050;-80
2023/04/29 03:58:30;;;;;;;45.17;25.38;;;;;;;9.27;100.00;100487.38;4956285;29;20070;-80
2023/04/29 04:00:58;;;;;;;38.00;24.38;;;;;;;9.26;100.00;100498.69;4955672;29;20046;-80
2023/04/29 04:03:26;;;;;;;43.42;27.05;;;;;;;9.22;100.00;100491.75;4956465;29;20478;-80
2023/04/29 04:05:53;;;;;;;45.50;29.13;;;;;;;9.19;100.00;100497.84;4940151;29;20146;-80
2023/04/29 04:08:20;;;;;;;43.00;27.38;;;;;;;9.17;100.00;100502.22;4956419;29;20039;-80
2023/04/29 04:10:46;;;;;;;44.75;28.50;;;;;;;9.16;100.00;100510.91;4956464;29;20040;-80
2023/04/29 04:13:13;;;;;;;48.38;29.15;;;;;;;9.15;100.00;100506.59;4955644;29;20039;-80
2023/04/29 04:15:40;;;;;;;51.58;30.63;;;;;;;9.15;100.00;100514.44;4955233;29;20038;-80
2023/04/29 04:18:08;;;;;;;52.22;31.63;;;;;;;9.15;100.00;100522.25;4940253;29;20047;-80
2023/04/29 04:20:38;;;;;;;47.15;30.20;;;;;;;9.17;100.00;100530.94;4955062;29;20043;-80
2023/04/29 04:23:05;;;;;;;50.45;30.63;;;;;;;9.16;100.00;100523.97;4955891;29;20051;-80
2023/04/29 04:25:31;;;;;;;49.05;30.60;;;;;;;9.18;100.00;100530.06;4955852;29;20055;-80
2023/04/29 04:27:58;;;;;;;55.08;30.75;;;;;;;9.21;100.00;100534.41;4954993;29;20039;-79
2023/04/29 04:30:24;;;;;;;47.75;30.95;;;;;;;9.21;100.00;100532.66;4942086;29;20086;-80
2023/04/29 04:32:51;;;;;;;49.53;29.88;;;;;;;9.22;100.00;100537.00;4955509;29;20131;-81
2023/04/29 04:35:18;;;;;;;52.67;31.95;;;;;;;9.23;100.00;100535.25;4956828;28;20117;-80
2023/04/29 04:37:45;;;;;;;48.92;30.10;;;;;;;9.25;100.00;100546.56;4956772;29;20043;-80
2023/04/29 04:40:12;;;;;;;57.92;33.85;;;;;;;9.26;100.00;100543.09;4957182;29;20047;-80
2023/04/29 04:42:39;;;;;;;52.80;31.90;;;;;;;9.26;100.00;100556.16;4939441;29;20102;-80
2023/04/29 04:45:08;;;;;;;57.65;34.63;;;;;;;9.24;100.00;100561.38;4954636;29;20081;-81
2023/04/29 04:47:35;;;;;;;61.55;34.55;;;;;;;9.25;100.00;100557.88;4955088;29;20390;-80
2023/04/29 04:50:03;;;;;;;60.97;33.92;;;;;;;9.23;100.00;100566.59;4957603;28;20134;-80
2023/04/29 04:52:30;;;;;;;67.30;36.55;;;;;;;9.21;100.00;100568.38;4973613;28;20035;-81
2023/04/29 04:54:56;;;;;;;64.80;38.42;;;;;;;9.18;100.00;100569.25;4975258;28;20526;-81
2023/04/29 04:57:23;;;;;;;65.30;37.67;;;;;;;9.14;100.00;100577.97;4957819;28;20039;-81
2023/04/29 04:59:50;;;;;;;62.05;38.83;;;;;;;9.10;100.00;100582.34;4973659;28;20465;-81
2023/04/29 05:02:18;;;;;;;62.38;36.30;;;;;;;9.09;100.00;100579.72;4973648;28;20047;-82
2023/04/29 05:04:45;;;;;;;63.40;38.72;;;;;;;9.05;100.00;100588.47;4947381;29;20044;-81
2023/04/29 05:07:11;;;;;;;58.42;34.67;;;;;;;9.03;100.00;100596.28;4954508;29;20039;-81
2023/04/29 05:09:38;;;;;;;60.45;36.67;;;;;;;9.02;100.00;100591.94;4955734;29;20393;-80
2023/04/29 05:12:05;;;;;;;54.95;34.08;;;;;;;9.01;100.00;100608.47;4954108;29;20043;-80
2023/04/29 05:14:31;;;;;;;56.25;33.70;;;;;;;9.01;100.00;100603.25;4954248;29;20067;-79
2023/04/29 05:17:01;;;;;;;59.65;36.03;;;;;;;8.98;100.00;100610.22;4954258;29;20031;-80
2023/04/29 05:19:27;;;;;;;52.88;32.15;;;;;;;8.98;100.00;100618.06;4938779;29;20141;-80
2023/04/29 05:21:54;;;;;;;53.58;31.73;;;;;;;8.98;100.00;100616.31;4954155;29;20158;-81
2023/04/29 05:24:20;;;;;;;44.40;30.52;;;;;;;8.96;100.00;100620.69;4954516;29;20458;-80
2023/04/29 05:26:48;;;;;;;43.38;30.88;;;;;;;8.96;100.00;100619.78;4954129;29;20094;-80
2023/04/29 05:29:15;;;;;;;48.55;31.70;;;;;;;8.99;100.00;100618.03;4954568;29;20126;-80
2023/04/29 05:31:41;;;;;;;47.35;30.15;;;;;;;9.00;100.00;100632.00;4961401;29;20058;-81
2023/04/29 05:34:08;;;;;;;46.17;29.85;;;;;;;9.02;100.00;100635.44;4954455;29;20043;-80
2023/04/29 05:36:34;;;;;;;44.47;29.55;;;;;;;9.01;100.00;100637.19;4954575;28;20043;-80
2023/04/29 05:39:01;;;;;;;51.13;30.63;;;;;;;9.03;100.00;100639.81;4954402;29;20102;-80
2023/04/29 05:41:27;;;;;;;47.25;30.70;;;;;;;9.04;100.00;100646.78;4953761;29;20379;-80
2023/04/29 05:43:53;;;;;;;43.38;28.73;;;;;;;9.02;100.00;100649.38;4954356;29;20486;-80
2023/04/29 05:46:21;;;;;;;39.58;26.67;;;;;;;9.01;100.00;100651.97;4954462;29;20044;-80
2023/04/29 05:48:48;;;;;;;40.05;26.60;;;;;;;8.99;100.00;100646.78;4954159;29;20035;-81
2023/04/29 05:51:14;;;;;;;39.40;26.50;;;;;;;9.01;100.00;100657.19;4953749;29;20047;-80
2023/04/29 05:53:41;;;;;;;47.03;28.98;;;;;;;9.02;100.00;100656.34;4953838;29;20050;-80
2023/04/29 05:56:07;;;;;;;39.78;26.23;;;;;;;9.02;100.00;100661.56;4937619;29;20043;-81
2023/04/29 05:58:35;;;;;;;46.40;27.48;;;;;;;9.01;100.00;100670.25;4953780;29;20039;-80
2023/04/29 06:01:02;;;;;;;39.83;25.23;;;;;;;9.03;100.00;100671.13;4953736;29;20470;-81
2023/04/29 06:03:29;;;;;;;44.10;26.52;;;;;;;9.05;100.00;100669.41;4955139;28;20074;-81
2023/04/29 06:05:57;;;;;;;34.92;22.55;;;;;;;9.04;100.00;100673.75;4954149;29;20057;-81
2023/04/29 06:08:23;;;;;;;39.10;24.17;;;;;;;9.10;100.00;100678.09;4954261;29;20046;-82
2023/04/29 06:10:51;;;;;;;38.70;23.60;;;;;;;9.13;100.00;100677.22;4954472;29;20039;-81
2023/04/29 06:13:17;;;;;;;39.58;23.77;;;;;;;9.16;100.00;100682.44;4953726;28;20590;-81
2023/04/29 06:15:44;;;;;;;37.00;22.58;;;;;;;9.21;100.00;100684.13;4957483;29;20493;-80
2023/04/29 06:18:13;;;;;;;40.90;24.48;;;;;;;9.26;100.00;100694.59;4957780;29;20362;-94
2023/04/29 06:20:40;;;;;;;37.53;24.25;;;;;;;9.37;100.00;100694.53;4941943;29;20086;-81
2023/04/29 06:23:08;;;;;;;36.55;22.92;;;;;;;9.47;100.00;100698.00;4957320;29;20105;-81
2023/04/29 06:25:34;;;;;;;31.13;22.25;;;;;;;9.52;100.00;100701.47;4973903;28;20047;-81
2023/04/29 06:28:03;;;;;;;33.38;22.35;;;;;;;9.60;100.00;100705.78;4957752;29;20035;-80
2023/04/29 06:30:30;;;;;;;33.13;22.98;;;;;;;9.66;100.00;100706.63;4957577;29;20047;-80
2023/04/29 06:32:56;;;;;;;29.98;22.45;;;;;;;9.68;100.00;100715.34;4957555;29;20066;-80
2023/04/29 06:35:23;;;;;;;34.30;22.48;;;;;;;9.74;100.00;100716.19;4958819;28;20051;-81
2023/04/29 06:37:49;;;;;;;35.90;22.67;;;;;;;9.75;100.00;100720.53;4957310;29;20046;-81
2023/04/29 06:40:16;;;;;;;28.35;20.08;;;;;;;9.77;100.00;100731.00;4958161;28;20063;-80
2023/04/29 06:42:43;;;;;;;31.60;19.60;;;;;;;9.72;100.00;100731.00;4940366;28;20363;-82
2023/04/29 06:45:10;;;;;;;25.63;19.40;;;;;;;9.64;100.00;100734.53;4956694;29;20466;-81
2023/04/29 06:47:36;;;;;;;25.88;19.38;;;;;;;9.61;100.00;100740.63;4956827;29;20046;-81
2023/04/29 06:50:05;;;;;;;28.33;18.48;;;;;;;9.66;100.00;100743.22;4951859;29;20039;-81
2023/04/29 06:52:32;;;;;;;23.90;17.90;;;;;;;9.66;100.00;100754.56;4937586;29;20044;-80
2023/04/29 06:54:58;;;;;;;27.67;18.90;;;;;;;9.79;100.00;100749.28;4937364;29;20043;-81
2023/04/29 06:57:25;;;;;;;25.23;17.17;;;;;;;9.82;100.00;100764.97;4938285;29;20050;-81
2023/04/29 06:59:52;;;;;;;29.33;18.38;;;;;;;9.88;100.00;100776.25;4953974;29;20050;-80
2023/04/29 07:02:19;;;;;;;28.92;19.50;;;;;;;9.97;100.00;100775.34;4941363;29;20035;-81
2023/04/29 07:04:45;;;;;;;24.35;16.50;;;;;;;10.10;100.00;100781.38;4922454;29;20628;-82
2023/04/29 07:07:12;;;;;;;22.42;15.05;;;;;;;10.20;100.00;100784.84;4939006;29;20054;-79
2023/04/29 07:09:38;;;;;;;21.38;15.80;;;;;;;10.32;100.00;100782.13;4945235;29;20044;-80
2023/04/29 07:12:05;;;;;;;21.45;14.43;;;;;;;10.50;100.00;100791.66;4939212;29;20366;-81
2023/04/29 07:14:31;;;;;;;17.98;15.02;;;;;;;10.61;100.00;100794.19;4938399;29;20067;-82
2023/04/29 07:16:58;;;;;;;22.40;15.55;;;;;;;10.79;100.00;100803.66;4922215;29;20049;-80
2023/04/29 07:19:24;;;;;;;18.80;15.48;;;;;;;10.94;100.00;100802.69;4937627;29;20044;-81
2023/04/29 07:21:51;;;;;;;20.38;14.60;;;;;;;10.97;100.00;100812.28;4953324;29;20059;-80
2023/04/29 07:24:17;;;;;;;21.38;14.77;;;;;;;10.97;100.00;100812.28;4937544;29;20039;-81
2023/04/29 07:26:47;;;;;;;16.35;12.75;;;;;;;11.06;100.00;100825.31;4920362;29;20035;-81
2023/04/29 07:29:13;;;;;;;18.33;13.18;;;;;;;11.10;100.00;100824.38;4937901;29;20090;-81
2023/04/29 07:31:40;;;;;;;19.88;14.38;;;;;;;11.15;100.00;100825.22;4938051;29;20455;-82
2023/04/29 07:34:06;;;;;;;17.48;13.60;;;;;;;11.28;100.00;100836.47;4938004;29;20111;-81
2023/04/29 07:36:33;;;;;;;17.23;12.23;;;;;;;11.50;100.00;100831.91;4938652;29;20043;-80
2023/04/29 07:38:59;;;;;;;15.57;11.85;;;;;;;11.87;100.00;100831.47;4937434;29;20051;-82
2023/04/29 07:41:27;;;;;;;13.80;11.02;;;;;;;12.31;100.00;100831.00;4937184;29;20047;-81
2023/04/29 07:43:54;;;;;;;12.52;11.18;;;;;;;12.65;96.90;100839.28;4937707;29;20043;-81
2023/04/29 07:46:20;;;;;;;13.98;10.88;;;;;;;12.70;95.11;100849.72;4921215;29;20044;-81
2023/04/29 07:48:47;;;;;;;16.73;11.70;;;;;;;12.64;94.83;100852.44;4937808;29;20040;-81
2023/04/29 07:51:14;;;;;;;12.00;9.60;;;;;;;12.61;94.84;100852.47;4937163;29;20126;-81
2023/04/29 07:53:41;;;;;;;11.52;9.50;;;;;;;12.45;94.08;100855.31;4920888;29;20048;-82
2023/04/29 07:56:08;;;;;;;11.48;10.10;;;;;;;12.52;93.71;100858.72;4936765;29;20036;-81
2023/04/29 07:58:35;;;;;;;11.65;10.20;;;;;;;12.51;92.98;100867.47;4937300;29;20487;-80
2023/04/29 08:01:10;;;;;;;10.60;9.05;;;;;;;12.45;93.59;100864.94;4952086;29;20043;-81
2023/04/29 08:03:37;;;;;;;13.10;9.63;;;;;;;12.59;92.73;100868.25;4937423;29;20091;-81
2023/04/29 08:06:05;;;;;;;10.00;9.00;;;;;;;12.67;92.52;100879.53;4936482;29;20050;-80
2023/04/29 08:08:31;;;;;;;10.55;8.95;;;;;;;12.71;91.75;100875.97;4936554;29;20122;-80
2023/04/29 08:10:58;;;;;;;12.50;10.10;;;;;;;12.61;91.73;100881.38;4936481;29;20044;-80
2023/04/29 08:13:25;;;;;;;12.25;9.00;;;;;;;12.52;91.59;100879.72;4936890;29;20079;-81
2023/04/29 08:15:52;;;;;;;8.73;7.80;;;;;;;12.51;91.93;100889.34;4937469;29;20042;-81
2023/04/29 08:18:20;;;;;;;10.32;7.90;;;;;;;12.65;91.73;100890.94;4921313;29;20083;-81
2023/04/29 08:20:48;;;;;;;10.15;8.55;;;;;;;12.93;90.41;100888.75;4952363;29;20039;-81
2023/04/29 08:23:15;;;;;;;9.60;8.43;;;;;;;13.29;87.66;100883.81;4937234;28;20079;-81
2023/04/29 08:25:43;;;;;;;8.75;7.85;;;;;;;13.53;86.84;100886.97;4955476;29;20043;-81
2023/04/29 08:28:11;;;;;;;12.45;9.15;;;;;;;13.67;85.34;100892.84;4971463;28;20043;-81
2023/04/29 08:30:41;;;;;;;11.07;8.65;;;;;;;13.78;84.37;100894.41;4939311;29;20043;-81
2023/04/29 08:33:08;;;;;;;12.13;9.55;;;;;;;13.88;84.04;100896.88;4955152;29;20043;-80
2023/04/29 08:35:37;;;;;;;12.85;8.98;;;;;;;14.21;82.84;100897.09;4939513;29;20051;-80
2023/04/29 08:38:08;;;;;;;12.00;8.70;;;;;;;15.02;80.08;100903.31;4954649;28;20147;-80
2023/04/29 08:40:45;;;;;;;10.02;7.85;;;;;;;16.40;76.58;100899.72;4939751;29;20389;-80
2023/04/29 08:43:14;;;;;;;10.60;8.15;;;;;;;17.10;69.30;100903.78;4956097;29;20043;-80
2023/04/29 08:45:42;;;;;;;8.70;7.13;;;;;;;16.99;69.41;100904.16;4954942;29;20070;-81
2023/04/29 08:48:09;;;;;;;10.13;7.70;;;;;;;16.71;70.33;100915.53;4955454;29;20118;-80
2023/04/29 08:50:39;;;;;;;8.52;6.68;;;;;;;16.38;71.13;100913.84;4955798;29;20050;-81
2023/04/29 08:53:14;;;;;;;9.57;6.63;;;;;;;16.17;70.58;100917.13;4939519;29;20043;-81
2023/04/29 08:55:48;;;;;;;8.20;7.30;;;;;;;15.76;71.70;100919.06;4954586;29;20039;-81
2023/04/29 08:58:16;;;;;;;8.52;7.35;;;;;;;15.42;72.03;100926.06;4955102;29;20039;-80
2023/04/29 09:00:44;;;;;;;7.85;6.90;;;;;;;15.12;71.91;100925.03;4938952;29;20139;-81
2023/04/29 09:03:26;;;;;;;5.90;5.20;;;;;;;15.09;73.83;100933.88;4954239;29;20439;-82
2023/04/29 09:05:55;;;;;;;8.50;6.35;;;;;;;15.12;72.97;100936.47;4954885;29;20047;-81
2023/04/29 09:08:25;;;;;;;9.88;7.30;;;;;;;15.04;73.16;100936.66;4954784;29;20051;-80
2023/04/29 09:10:52;;;;;;;10.00;7.68;;;;;;;15.15;72.83;100940.81;4955109;29;20051;-81
2023/04/29 09:13:27;;;;;;;6.40;5.78;;;;;;;15.15;72.82;100941.66;4954362;29;20043;-81
2023/04/29 09:15:54;;;;;;;7.47;6.80;;;;;;;15.10;72.75;100950.59;4938616;29;20039;-81
2023/04/29 09:18:50;;;;;;;9.80;6.70;;;;;;;14.93;72.02;100953.56;4954726;29;20035;-81
2023/04/29 09:21:24;;;;;;;8.98;6.47;;;;;;;14.79;73.48;100946.84;4938605;29;20047;-81
2023/04/29 09:23:57;;;;;;;8.50;6.13;;;;;;;14.85;73.36;100953.78;4954333;29;20039;-80
2023/04/29 09:26:24;;;;;;;8.35;6.18;;;;;;;14.92;73.56;100952.72;4955136;29;20043;-81
2023/04/29 09:29:12;;;;;;;10.50;6.82;;;;;;;14.95;72.35;100959.69;4954684;29;20047;-81
2023/04/29 09:31:39;;;;;;;7.60;6.05;;;;;;;14.64;72.86;100961.22;4954499;29;20039;-81
2023/04/29 09:34:06;;;;;;;8.10;6.80;;;;;;;14.29;74.23;100956.63;4954593;29;20062;-81
2023/04/29 09:36:48;;;;;;;7.18;6.47;;;;;;;13.90;75.32;100963.47;4954157;29;20138;-80
2023/04/29 09:39:22;;;;;;;11.45;7.90;;;;;;;13.59;78.17;100981.56;4954170;29;20050;-81
2023/04/29 09:41:54;;;;;;;9.70;7.38;;;;;;;13.28;78.72;100981.13;4954419;29;20043;-80
2023/04/29 09:44:27;;;;;;;10.52;8.30;;;;;;;13.05;79.53;100984.97;4955927;29;20115;-81
2023/04/29 09:47:03;;;;;;;9.23;8.05;;;;;;;12.92;80.43;100984.28;4954265;29;20044;-80
2023/04/29 09:49:31;;;;;;;10.07;8.38;;;;;;;12.88;80.76;100988.69;4959159;28;20390;-81
2023/04/29 09:52:05;;;;;;;12.20;8.60;;;;;;;12.90;80.72;100992.16;4962152;28;20115;-80
2023/04/29 09:54:35;;;;;;;9.07;7.70;;;;;;;12.94;80.47;100994.75;4961034;29;20070;-80
2023/04/29 09:57:04;;;;;;;10.00;7.50;;;;;;;12.99;80.23;100995.56;4961238;29;20031;-81
2023/04/29 09:59:34;;;;;;;9.18;7.47;;;;;;;13.20;79.50;100999.66;4962410;28;20046;-81
2023/04/29 10:02:06;;;;;;;11.27;7.13;;;;;;;13.48;77.67;100996.63;4960881;29;20050;-83
2023/04/29 10:04:35;;;;;;;10.13;7.80;;;;;;;13.79;76.04;100994.38;4960385;28;20046;-82
2023/04/29 10:07:02;;;;;;;9.27;8.02;;;;;;;14.00;75.08;100994.91;4960727;28;20053;-80
2023/04/29 10:09:30;;;;;;;8.68;7.78;;;;;;;14.28;75.23;100992.63;4960505;28;20043;-82
2023/04/29 10:11:56;;;;;;;10.82;7.75;;;;;;;14.60;72.54;101001.69;4960757;29;20043;-79
2023/04/29 10:14:25;;;;;;;11.65;8.40;;;;;;;14.64;72.58;100978.78;4961050;28;20071;-79
2023/04/29 10:17:02;;;;;;;8.63;7.35;;;;;;;14.75;71.58;100992.63;4944427;29;20111;-80
2023/04/29 10:19:45;;;;;;;9.23;7.18;;;;;;;14.86;71.57;100995.03;4960484;28;20382;-80
2023/04/29 10:22:22;;;;;;;9.57;7.95;;;;;;;15.24;70.09;100995.97;4960453;29;20058;-80
2023/04/29 10:24:51;;;;;;;9.57;7.85;;;;;;;15.96;68.87;100995.16;4961111;29;20035;-80
2023/04/29 10:27:20;;;;;;;10.30;8.73;;;;;;;18.07;61.76;100989.72;4960779;28;20039;-80
2023/04/29 10:29:48;;;;;;;10.57;8.68;;;;;;;20.52;53.53;100986.25;4976515;28;20047;-81
2023/04/29 10:32:15;;;;;;;8.55;7.55;;;;;;;22.51;49.44;100984.50;4944716;29;20052;-80
2023/04/29 10:34:43;;;;;;;8.15;7.35;;;;;;;23.91;43.39;100983.81;4960301;29;20042;-81
2023/04/29 10:37:15;;;;;;;10.95;7.18;;;;;;;22.88;41.26;100985.19;4944541;29;20453;-80
2023/04/29 10:40:19;;;;;;;8.10;6.78;;;;;;;21.08;43.76;100990.78;4960984;28;20062;-80
2023/04/29 10:42:52;;;;;;;9.75;6.88;;;;;;;19.73;47.90;101001.13;4961565;29;20113;-80
2023/04/29 10:45:34;;;;;;;9.45;6.88;;;;;;;18.93;48.96;100988.38;4960785;29;20043;-80
2023/04/29 10:48:05;;;;;;;6.97;6.30;;;;;;;18.49;50.73;100997.94;4961302;29;20043;-80
2023/04/29 10:50:33;;;;;;;10.10;8.00;;;;;;;19.85;46.58;100985.63;4961450;28;20126;-80
2023/04/29 10:53:05;;;;;;;9.38;6.85;;;;;;;20.44;46.14;100991.91;4960463;29;20043;-80
2023/04/29 10:55:36;;;;;;;8.45;7.15;;;;;;;20.36;44.75;100986.06;4962098;28;20039;-80
2023/04/29 10:58:05;;;;;;;6.80;5.70;;;;;;;20.53;43.82;100991.50;4961632;28;20039;-81
2023/04/29 11:00:39;;;;;;;7.18;6.50;;;;;;;20.42;43.37;100985.81;4958826;28;20382;-81
2023/04/29 11:03:06;;;;;;;7.75;6.65;;;;;;;19.51;45.48;100988.72;4957367;29;20074;-80
2023/04/29 11:05:37;;;;;;;6.90;6.20;;;;;;;19.05;46.73;100997.69;4957318;29;20434;-80
2023/04/29 11:08:21;;;;;;;7.28;6.43;;;;;;;18.49;47.29;100999.72;4957840;28;20046;-81
2023/04/29 11:10:48;;;;;;;6.68;6.07;;;;;;;18.02;48.75;100990.75;4957860;29;20114;-80
2023/04/29 11:13:22;;;;;;;6.93;6.20;;;;;;;17.94;49.02;100998.09;4957020;29;20485;-81
2023/04/29 11:15:48;;;;;;;7.18;5.88;;;;;;;17.73;49.37;100999.66;4958832;28;20526;-80
2023/04/29 11:18:15;;;;;;;7.68;6.45;;;;;;;17.42;49.62;101002.44;4941683;29;20039;-81
2023/04/29 11:21:06;;;;;;;6.95;5.90;;;;;;;17.16;49.28;101004.13;4957730;29;20047;-81